Iola, Texas
Current Conditions -  °F | °C
As of 4:55 AM on Sunday 26 Oct 2014 (Local Time) from KCFD Reporting Station
Clear Clear  
Wind Chill: 62°   Ceiling: Unl
Heat Index: 62°   Visibility: 10mi
Dew Point: 59°   Wind: 3mph
Humidity: 91%   Direction: 190°S
Pressure: 30.06"   Gusts: NA
Location:  30.77°N, 96.08°W
Report Text: KCFD 260955Z AUTO 19003KT 10SM CLR 16/15 A3006 RMK AO2 T01640150
Loading
Personal Weather Stations






























Interactive Weather Map
Tropical Storm Tracking
New forecast layout! Learn more

10-Day Weather Forecast

Advertisements
Track Severe Weather on mobile